Terminal Aerodrome Forecast
Issued by NWS State College, PA

Home | Current Version | Previous Version | Text Only | Print | Product List | Glossary On
Versions: 1 2 3 4 5 6 7 8 9 10 11 12 13 14 15 16 17 18 19 20 21 22 23 24 25 26 27 28 29 30
000
FTUS41 KCTP 231733
TAFMDT
TAF
KMDT 231733Z 2318/2418 14003KT P6SM SCT060 BKN140 OVC200
     FM240400 05003KT P6SM VCSH OVC100
     FM240900 36005KT 5SM BR OVC050
     FM241200 02006KT 6SM HZ OVC100
     FM241500 09005KT P6SM SCT200=

USA.gov is the U.S. government's official web portal to all federal, state and local government web resources and services.